Opa-locka Executive Airport Miami US
ICAO: KOPF
IATA: OPF
Category: Medium
Scheduled Services: No

Elevation: 8 ft
TransAlt. 18000 ft.

Airport Communications:
MIAMI APP/DEP:128.6
ATIS:125.9
CLNC DEL:119.2
CTAF:120.7
GND:121.9
CG MIAMI AIR:123.1
TWR:120.7

KOPF Zoom In..

Runways:

(A) RW 09L length 8002 ft width 150 ft
ILS 110.50 / hdg 89

(B) RW 09R length 4309 ft width 100 ft
---- / hdg 89

(C) RW 12 length 6800 ft width 150 ft
ILS 111.55 / hdg 124

(D) RW 27L length 4309 ft width 100 ft
---- / hdg 269

(E) RW 27R length 8002 ft width 150 ft
ILS 111.35 / hdg 269

(F) RW 30 length 6800 ft width 150 ft
---- / hdg 304

Location; KOPF
Day. 15 / Time. 22.53 Zulu
* Altimeter: 30.02
* Temperature: 31° c. 87.8°f.
* Wind from: 130° Speed 09 kn.
Dewpoint: 21° c.
Visibility: 10 Statute Miles.
Clouds: Clear (automated report).

KOPF 152253Z 13009KT 10SM CLR 31/21 A3002 RMK AO2 SLP166 T03110211


Wind From 130°
Speed 09 kn.

 
 
jpsmedia.com for Web Design worldairports.se 2018   terms of use